Altoona, Florida
Current Conditions -  °F | °C
As of 11:53 AM on Tuesday 21 Oct 2014 (Local Time) from KLEE Reporting Station
Clear Clear  
Wind Chill: 78°   Ceiling: Unl
Heat Index: 80°   Visibility: 10mi
Dew Point: 68°   Wind: 5mph
Humidity: 71%   Direction: NA
Pressure: 29.98"   Gusts: NA
Location:  28.97°N, 81.65°W
Report Text: KLEE 211553Z VRB04KT 10SM CLR 26/20 A2998 RMK AO2 SLP152 T02560200
Loading
Personal Weather Stations






























Interactive Weather Map
Tropical Storm Tracking
New forecast layout! Learn more

10-Day Weather Forecast

Advertisements
Track Severe Weather on mobile